Time;durP1;ratioP1;P1;durP2;ratioP2;P2;SDS_P1;SDS_P2;PMS_P1;PMS_P2;Temp;Humidity;BMP_temperature;BMP_pressure;BME280_temperature;BME280_humidity;BME280_pressure;Samples;Min_cycle;Max_cycle;Signal;HPM_P1;HPM_P2
2022/05/25 00:01:24;;;;;;;3.53;1.83;;;11.30;99.90;;;;;;5071318;28;20050;-69
2022/05/25 00:03:50;;;;;;;2.90;1.58;;;11.30;99.90;;;;;;5089632;28;20024;-69
2022/05/25 00:06:16;;;;;;;3.03;1.50;;;11.30;99.90;;;;;;5070985;28;20478;-69
2022/05/25 00:08:43;;;;;;;3.13;1.75;;;11.30;99.90;;;;;;5070978;28;20481;-69
2022/05/25 00:11:10;;;;;;;3.60;1.65;;;11.20;99.90;;;;;;5069900;28;20040;-69
2022/05/25 00:13:36;;;;;;;2.72;1.75;;;11.20;99.90;;;;;;5070609;28;20139;-69
2022/05/25 00:16:02;;;;;;;4.65;1.60;;;11.10;99.90;;;;;;5089289;28;20036;-69
2022/05/25 00:18:28;;;;;;;2.90;1.70;;;11.10;99.90;;;;;;5053902;28;20123;-69
2022/05/25 00:20:53;;;;;;;3.13;2.20;;;11.10;99.90;;;;;;5070515;28;20122;-69
2022/05/25 00:23:19;;;;;;;4.20;2.28;;;11.10;99.90;;;;;;5070581;28;20050;-69
2022/05/25 00:25:46;;;;;;;3.75;2.10;;;11.10;99.90;;;;;;5053577;28;20047;-69
2022/05/25 00:28:13;;;;;;;3.72;2.20;;;11.10;99.90;;;;;;5088188;28;20059;-69
2022/05/25 00:30:41;;;;;;;6.38;2.30;;;11.10;99.90;;;;;;5070761;28;20036;-69
2022/05/25 00:33:07;;;;;;;3.40;1.88;;;11.10;99.90;;;;;;5050514;28;20117;-69
2022/05/25 00:35:35;;;;;;;3.67;2.30;;;11.10;99.90;;;;;;5067104;28;20036;-69
2022/05/25 00:38:02;;;;;;;3.42;1.92;;;11.00;99.90;;;;;;5067302;28;20056;-69
2022/05/25 00:40:35;;;;;;;3.72;2.50;;;11.00;99.90;;;;;;5066004;28;20174;-69
2022/05/25 00:43:01;;;;;;;3.25;1.83;;;11.00;99.90;;;;;;5067489;28;20401;-69
2022/05/25 00:45:29;;;;;;;3.47;2.10;;;11.00;99.90;;;;;;5067227;28;20052;-69
2022/05/25 00:47:54;;;;;;;2.90;1.95;;;10.90;99.90;;;;;;5067321;28;20037;-69
2022/05/25 00:50:23;;;;;;;4.72;2.05;;;11.00;99.90;;;;;;5067400;28;20165;-69
2022/05/25 00:52:50;;;;;;;4.10;2.03;;;10.90;99.90;;;;;;5068689;28;20036;-69
2022/05/25 00:55:26;;;;;;;3.17;1.92;;;10.90;99.90;;;;;;5066287;28;20430;-69
2022/05/25 00:57:56;;;;;;;3.50;2.03;;;10.90;99.90;;;;;;5067343;28;20044;-69
2022/05/25 01:00:27;;;;;;;4.18;2.17;;;10.90;99.90;;;;;;5068900;28;20044;-69
2022/05/25 01:03:08;;;;;;;3.17;2.10;;;10.90;99.90;;;;;;5071825;28;20506;-69
2022/05/25 01:05:46;;;;;;;4.93;2.97;;;10.90;99.90;;;;;;5071257;28;20119;-69
2022/05/25 01:08:25;;;;;;;4.95;2.50;;;10.90;99.90;;;;;;5054626;28;20119;-69
2022/05/25 01:11:04;;;;;;;4.07;2.55;;;10.80;99.90;;;;;;5071780;28;20063;-69
2022/05/25 01:13:51;;;;;;;2.58;1.83;;;10.80;99.90;;;;;;5054240;28;20036;-69
2022/05/25 01:16:28;;;;;;;3.38;1.50;;;10.70;99.90;;;;;;5061766;28;20039;-69
2022/05/25 01:19:10;;;;;;;3.97;1.83;;;10.70;99.90;;;;;;5071052;28;20040;-69
2022/05/25 01:22:16;;;;;;;2.60;1.63;;;10.70;99.90;;;;;;5070685;28;20044;-69
2022/05/25 01:25:08;;;;;;;2.93;1.73;;;10.70;99.90;;;;;;5069970;28;20049;-69
2022/05/25 01:27:37;;;;;;;3.33;1.98;;;10.70;99.90;;;;;;5070824;28;20734;-69
2022/05/25 01:30:14;;;;;;;7.38;2.58;;;10.70;99.90;;;;;;5070554;28;20072;-69
2022/05/25 01:32:51;;;;;;;2.20;1.50;;;10.70;99.90;;;;;;5070424;28;20063;-69
2022/05/25 01:35:59;;;;;;;5.45;2.15;;;10.70;99.90;;;;;;5070134;28;20033;-69
2022/05/25 01:38:41;;;;;;;3.08;1.80;;;10.70;99.90;;;;;;5070211;28;20044;-69
2022/05/25 01:41:29;;;;;;;3.03;1.55;;;10.70;99.90;;;;;;5069114;28;20102;-69
2022/05/25 01:43:57;;;;;;;6.07;2.45;;;10.70;99.90;;;;;;5070698;28;20060;-69
2022/05/25 01:46:32;;;;;;;3.28;2.00;;;10.70;99.90;;;;;;5053690;28;20036;-69
2022/05/25 01:49:03;;;;;;;3.88;1.90;;;10.70;99.90;;;;;;5070202;28;20047;-69
2022/05/25 01:51:44;;;;;;;3.03;1.83;;;10.70;99.90;;;;;;5069884;28;20102;-69
2022/05/25 01:54:13;;;;;;;4.47;2.10;;;10.60;99.90;;;;;;5069967;28;20501;-69
2022/05/25 01:56:43;;;;;;;3.13;1.80;;;10.70;99.90;;;;;;5069693;28;20567;-69
2022/05/25 01:59:13;;;;;;;3.60;1.60;;;10.60;99.90;;;;;;5072131;28;20047;-69
2022/05/25 02:04:44;;;;;;;3.42;2.15;;;10.60;99.90;;;;;;5069846;28;20182;-69
2022/05/25 02:07:32;;;;;;;4.07;2.35;;;10.60;99.90;;;;;;5050246;28;20037;-69
2022/05/25 02:10:16;;;;;;;2.58;1.67;;;10.60;99.90;;;;;;5050078;28;20052;-69
2022/05/25 02:12:58;;;;;;;4.38;2.45;;;10.60;99.90;;;;;;5049817;28;20295;-69
2022/05/25 02:15:28;;;;;;;3.05;1.75;;;10.50;99.90;;;;;;5050002;28;20565;-69
2022/05/25 02:18:06;;;;;;;4.47;2.38;;;10.50;99.90;;;;;;5060682;28;20271;-69
2022/05/25 02:20:54;;;;;;;4.35;2.67;;;10.50;99.90;;;;;;5033260;28;20067;-69
2022/05/25 02:23:20;;;;;;;4.15;2.25;;;10.50;99.90;;;;;;5049979;28;20048;-69
2022/05/25 02:26:03;;;;;;;3.70;2.05;;;10.50;99.90;;;;;;5033551;28;20402;-69
2022/05/25 02:28:37;;;;;;;3.60;2.10;;;10.50;99.90;;;;;;5049448;28;20094;-69
2022/05/25 02:31:05;;;;;;;5.18;2.53;;;10.50;99.90;;;;;;5032060;28;20033;-69
2022/05/25 02:33:38;;;;;;;3.90;2.33;;;10.50;99.90;;;;;;5033154;28;20059;-69
2022/05/25 02:36:06;;;;;;;3.65;2.25;;;10.50;99.90;;;;;;5050103;28;20076;-69
2022/05/25 02:38:37;;;;;;;4.45;2.30;;;10.50;99.90;;;;;;5049892;28;20052;-69
2022/05/25 02:41:12;;;;;;;3.83;2.53;;;10.50;99.90;;;;;;5016541;28;20055;-69
2022/05/25 02:43:38;;;;;;;3.85;2.25;;;10.50;99.90;;;;;;5066203;28;20084;-69
2022/05/25 02:46:06;;;;;;;4.20;2.35;;;10.50;99.90;;;;;;5050058;28;20422;-69
2022/05/25 02:48:35;;;;;;;4.93;2.72;;;10.40;99.90;;;;;;5056901;28;20486;-69
2022/05/25 02:51:01;;;;;;;5.70;2.00;;;10.40;99.90;;;;;;5069605;28;20402;-69
2022/05/25 02:53:27;;;;;;;4.85;2.42;;;10.40;99.90;;;;;;5069228;28;20048;-69
2022/05/25 02:55:52;;;;;;;2.97;2.08;;;10.40;99.90;;;;;;5069175;28;20354;-69
2022/05/25 02:58:18;;;;;;;4.00;2.35;;;10.40;99.90;;;;;;5068969;28;20037;-69
2022/05/25 03:00:44;;;;;;;3.92;2.50;;;10.40;99.90;;;;;;5067684;28;20045;-69
2022/05/25 03:03:12;;;;;;;6.00;3.13;;;10.30;99.90;;;;;;5069296;28;20048;-69
2022/05/25 03:05:39;;;;;;;4.05;2.33;;;10.40;99.90;;;;;;5068991;28;20052;-69
2022/05/25 03:08:05;;;;;;;5.47;2.63;;;10.30;99.90;;;;;;5069123;28;20057;-69
2022/05/25 03:10:31;;;;;;;5.70;2.95;;;10.30;99.90;;;;;;5068476;28;20056;-69
2022/05/25 03:12:57;;;;;;;3.42;1.88;;;10.30;99.90;;;;;;5068536;28;20044;-69
2022/05/25 03:15:23;;;;;;;4.38;2.47;;;10.30;99.90;;;;;;5067512;28;20066;-69
2022/05/25 03:17:48;;;;;;;3.95;2.42;;;10.30;99.90;;;;;;5068671;28;20283;-69
2022/05/25 03:20:15;;;;;;;4.00;2.50;;;10.30;99.90;;;;;;5068396;28;20048;-69
2022/05/25 03:22:44;;;;;;;5.32;2.45;;;10.30;99.90;;;;;;5068017;28;20041;-69
2022/05/25 03:25:10;;;;;;;3.70;2.08;;;10.30;99.90;;;;;;5068105;28;20464;-69
2022/05/25 03:27:36;;;;;;;5.32;3.00;;;10.30;99.90;;;;;;5068257;28;20075;-69
2022/05/25 03:30:04;;;;;;;6.28;3.38;;;10.30;99.90;;;;;;5067078;28;20064;-69
2022/05/25 03:32:30;;;;;;;5.80;2.50;;;10.40;99.90;;;;;;5068043;28;20048;-69
2022/05/25 03:34:55;;;;;;;5.07;2.58;;;10.40;99.90;;;;;;5051693;28;20075;-69
2022/05/25 03:37:21;;;;;;;4.60;2.53;;;10.30;99.90;;;;;;5068162;28;20068;-69
2022/05/25 03:39:46;;;;;;;6.00;3.00;;;10.30;99.90;;;;;;5067698;28;20044;-69
2022/05/25 03:42:15;;;;;;;4.88;2.75;;;10.40;99.90;;;;;;5067973;28;20049;-69
2022/05/25 03:44:40;;;;;;;5.18;2.90;;;10.30;99.90;;;;;;5067280;28;20044;-69
2022/05/25 03:47:06;;;;;;;5.20;2.90;;;10.40;99.90;;;;;;5068501;28;20489;-69
2022/05/25 03:49:32;;;;;;;6.82;2.90;;;10.30;99.90;;;;;;5067624;28;20048;-69
2022/05/25 03:51:57;;;;;;;5.57;3.13;;;10.40;99.90;;;;;;5067845;28;20036;-69
2022/05/25 03:54:23;;;;;;;5.03;2.65;;;10.30;99.90;;;;;;5067506;28;20063;-69
2022/05/25 03:56:49;;;;;;;5.45;2.60;;;10.30;99.90;;;;;;5067924;28;20040;-69
2022/05/25 03:59:14;;;;;;;3.78;2.65;;;10.30;99.90;;;;;;5066541;28;20127;-69
2022/05/25 04:01:40;;;;;;;4.18;2.75;;;10.30;99.90;;;;;;5067519;28;20048;-69
2022/05/25 04:04:06;;;;;;;6.38;3.35;;;10.30;99.90;;;;;;5069409;28;20174;-69
2022/05/25 04:06:32;;;;;;;4.88;2.88;;;10.30;99.90;;;;;;5067453;28;20503;-69
2022/05/25 04:08:57;;;;;;;5.85;2.45;;;10.30;99.90;;;;;;5050522;28;20054;-69
2022/05/25 04:11:23;;;;;;;5.75;3.22;;;10.30;99.90;;;;;;5067469;28;20040;-69
2022/05/25 04:13:49;;;;;;;6.05;3.00;;;10.30;99.90;;;;;;5068171;28;20477;-69
2022/05/25 04:16:15;;;;;;;4.85;2.75;;;10.30;99.90;;;;;;5049904;28;20037;-69
2022/05/25 04:18:41;;;;;;;4.63;2.47;;;10.30;99.90;;;;;;5030953;28;20088;-69
2022/05/25 04:21:07;;;;;;;4.60;2.50;;;10.30;99.90;;;;;;5047714;28;20120;-69
2022/05/25 04:23:33;;;;;;;8.02;2.38;;;10.40;99.90;;;;;;5047574;28;20136;-69
2022/05/25 04:25:58;;;;;;;5.97;3.00;;;10.40;99.90;;;;;;5047465;28;20099;-69
2022/05/25 04:28:24;;;;;;;5.65;3.17;;;10.40;99.90;;;;;;5066668;28;20493;-69
2022/05/25 04:30:50;;;;;;;4.80;2.65;;;10.40;99.90;;;;;;5067626;28;20485;-69
2022/05/25 04:33:16;;;;;;;3.97;2.28;;;10.40;99.90;;;;;;5067412;28;20059;-69
2022/05/25 04:35:42;;;;;;;5.63;3.30;;;10.50;99.90;;;;;;5066576;28;20493;-69
2022/05/25 04:38:08;;;;;;;5.25;2.92;;;10.50;99.90;;;;;;5067428;28;20037;-69
2022/05/25 04:40:37;;;;;;;8.02;2.75;;;10.50;99.90;;;;;;5067210;28;20136;-69
2022/05/25 04:43:09;;;;;;;4.57;2.92;;;10.60;99.90;;;;;;5068541;28;20046;-69
2022/05/25 04:45:37;;;;;;;5.32;3.35;;;10.60;99.90;;;;;;5066794;28;20436;-69
2022/05/25 04:48:03;;;;;;;5.20;3.05;;;10.60;99.90;;;;;;5067326;28;20036;-69
2022/05/25 04:50:33;;;;;;;4.00;2.83;;;10.60;99.90;;;;;;5067082;28;20101;-69
2022/05/25 04:52:59;;;;;;;6.13;2.67;;;10.70;99.90;;;;;;5050566;28;20037;-69
2022/05/25 04:58:22;;;;;;;6.55;3.28;;;10.70;99.90;;;;;;5067181;28;20394;-69
2022/05/25 05:00:48;;;;;;;5.15;3.08;;;10.80;99.90;;;;;;5065782;28;20045;-69
2022/05/25 05:03:14;;;;;;;5.78;3.25;;;10.80;99.90;;;;;;5066678;28;20032;-69
2022/05/25 05:05:40;;;;;;;7.32;3.50;;;10.80;99.90;;;;;;5066828;28;20090;-69
2022/05/25 05:08:07;;;;;;;5.75;3.20;;;10.80;99.90;;;;;;5066976;28;20045;-69
2022/05/25 05:10:32;;;;;;;5.22;3.30;;;10.80;99.90;;;;;;5067753;28;20501;-69
2022/05/25 05:12:58;;;;;;;3.63;2.30;;;10.90;99.90;;;;;;5068168;28;20072;-69
2022/05/25 05:15:23;;;;;;;5.30;2.70;;;10.90;99.90;;;;;;5049342;28;20041;-69
2022/05/25 05:17:49;;;;;;;6.47;3.22;;;10.90;99.90;;;;;;5066323;28;20139;-69
2022/05/25 05:20:15;;;;;;;4.88;2.65;;;11.00;99.90;;;;;;5066595;28;20083;-69
2022/05/25 05:22:40;;;;;;;5.25;2.55;;;11.00;99.90;;;;;;5066531;28;20044;-69
2022/05/25 05:25:07;;;;;;;6.25;2.78;;;11.00;99.90;;;;;;5066641;28;20048;-69
2022/05/25 05:27:33;;;;;;;7.32;3.20;;;11.00;99.90;;;;;;5066817;28;20091;-69
2022/05/25 05:30:03;;;;;;;5.22;3.17;;;11.10;99.90;;;;;;5065644;28;20080;-69
2022/05/25 05:32:30;;;;;;;4.93;2.75;;;11.10;99.90;;;;;;5049394;28;20155;-69
2022/05/25 05:34:57;;;;;;;4.88;2.90;;;11.20;99.90;;;;;;5066774;28;20037;-69
2022/05/25 05:37:29;;;;;;;5.68;2.97;;;11.20;99.90;;;;;;5050442;28;20040;-69
2022/05/25 05:39:56;;;;;;;6.18;3.25;;;11.20;99.90;;;;;;5066562;28;20060;-69
2022/05/25 05:42:24;;;;;;;6.55;2.97;;;11.30;99.90;;;;;;5050074;28;20044;-69
2022/05/25 05:44:56;;;;;;;7.55;3.17;;;11.30;99.90;;;;;;5048894;28;20045;-69
2022/05/25 05:47:27;;;;;;;6.20;2.78;;;11.40;99.90;;;;;;5070091;28;20048;-69
2022/05/25 05:49:53;;;;;;;4.50;2.65;;;11.40;99.90;;;;;;5070437;28;20523;-69
2022/05/25 05:52:18;;;;;;;5.88;2.88;;;11.50;99.90;;;;;;5070476;28;20563;-68
2022/05/25 05:54:44;;;;;;;6.22;3.42;;;11.60;99.90;;;;;;5069971;28;20066;-69
2022/05/25 05:57:11;;;;;;;6.05;2.75;;;11.60;99.90;;;;;;5070373;28;20440;-69
2022/05/25 05:59:38;;;;;;;6.18;2.83;;;11.60;99.90;;;;;;5069277;28;20410;-69
2022/05/25 06:02:05;;;;;;;6.43;3.05;;;11.70;99.90;;;;;;5053669;28;20044;-69
2022/05/25 06:04:32;;;;;;;9.40;2.75;;;11.80;99.90;;;;;;5070413;28;20067;-69
2022/05/25 06:06:57;;;;;;;6.85;3.03;;;11.80;99.90;;;;;;5070477;28;20439;-69
2022/05/25 06:09:23;;;;;;;8.23;2.88;;;11.80;99.90;;;;;;5070846;28;20052;-69
2022/05/25 06:11:48;;;;;;;8.43;2.60;;;11.90;99.90;;;;;;5069598;28;20032;-69
2022/05/25 06:14:14;;;;;;;6.18;3.03;;;11.90;99.90;;;;;;5068756;28;20098;-69
2022/05/25 06:19:27;;;;;;;4.93;2.78;;;12.00;99.90;;;;;;5069669;28;20044;-69
2022/05/25 06:22:00;;;;;;;6.90;2.95;;;12.00;99.90;;;;;;5069481;28;20085;-69
2022/05/25 06:24:28;;;;;;;6.55;3.47;;;12.10;99.90;;;;;;5069144;28;20044;-69
2022/05/25 06:26:54;;;;;;;5.97;3.33;;;12.20;99.90;;;;;;5052762;28;20047;-69
2022/05/25 06:29:21;;;;;;;5.40;2.83;;;12.30;99.90;;;;;;5068652;28;20037;-69
2022/05/25 06:31:48;;;;;;;8.38;3.45;;;12.70;99.90;;;;;;5052675;28;20037;-69
2022/05/25 06:34:14;;;;;;;10.07;2.92;;;13.80;99.90;;;;;;5072824;28;20051;-69
2022/05/25 06:36:39;;;;;;;9.57;2.97;;;14.90;99.90;;;;;;5072995;28;20036;-69
2022/05/25 06:39:05;;;;;;;4.95;2.58;;;15.90;99.90;;;;;;5072405;28;20043;-69
2022/05/25 06:41:30;;;;;;;6.05;2.40;;;16.80;99.90;;;;;;5055867;28;20417;-69
2022/05/25 06:43:56;;;;;;;4.63;3.00;;;17.50;99.90;;;;;;5071991;28;20087;-69
2022/05/25 06:46:22;;;;;;;5.38;3.05;;;18.00;99.90;;;;;;5072090;28;20150;-69
2022/05/25 06:48:50;;;;;;;4.90;2.53;;;18.50;99.90;;;;;;5072271;28;20044;-69
2022/05/25 06:51:27;;;;;;;4.65;2.67;;;18.70;99.90;;;;;;5072698;28;20039;-69
2022/05/25 06:53:53;;;;;;;4.50;2.17;;;18.10;99.90;;;;;;5090641;28;20082;-69
2022/05/25 06:56:20;;;;;;;4.32;2.33;;;17.40;99.90;;;;;;5090624;28;20072;-69
2022/05/25 06:58:47;;;;;;;3.65;2.15;;;16.80;99.90;;;;;;5071625;28;20083;-69
2022/05/25 07:01:13;;;;;;;3.33;2.08;;;16.30;99.90;;;;;;5055081;28;20418;-69
2022/05/25 07:03:38;;;;;;;5.53;2.80;;;15.80;99.90;;;;;;5072608;28;20051;-69
2022/05/25 07:06:05;;;;;;;3.33;1.83;;;15.50;99.90;;;;;;5072602;28;20047;-69
2022/05/25 07:08:31;;;;;;;5.13;2.75;;;15.20;99.90;;;;;;5072194;28;20055;-69
2022/05/25 07:10:57;;;;;;;5.82;2.72;;;15.00;99.90;;;;;;5072122;28;20056;-69
2022/05/25 07:13:24;;;;;;;3.67;2.30;;;14.80;99.90;;;;;;5055446;28;20096;-69
2022/05/25 07:15:54;;;;;;;4.45;2.80;;;14.80;99.90;;;;;;5089120;28;20032;-69
2022/05/25 07:18:20;;;;;;;5.80;2.53;;;14.70;99.90;;;;;;5072689;28;20044;-69
2022/05/25 07:20:45;;;;;;;4.57;2.72;;;14.70;99.90;;;;;;5055329;28;20504;-69
2022/05/25 07:23:11;;;;;;;4.32;2.22;;;14.60;99.90;;;;;;5090139;28;20528;-69
2022/05/25 07:25:36;;;;;;;4.25;2.22;;;14.60;99.90;;;;;;5071750;28;20051;-69
2022/05/25 07:28:02;;;;;;;4.55;1.95;;;14.60;99.90;;;;;;5055345;28;20032;-69
2022/05/25 07:30:28;;;;;;;3.95;2.13;;;14.60;99.90;;;;;;5053813;28;20050;-69
2022/05/25 07:32:56;;;;;;;6.22;1.88;;;14.60;99.90;;;;;;5071171;28;20106;-69
2022/05/25 07:35:22;;;;;;;3.55;1.63;;;14.60;99.90;;;;;;5054683;28;20040;-69
2022/05/25 07:37:50;;;;;;;3.28;1.60;;;14.50;99.90;;;;;;5089714;28;20383;-69
2022/05/25 07:40:21;;;;;;;4.35;2.00;;;14.50;99.90;;;;;;5054624;28;20044;-69
2022/05/25 07:42:51;;;;;;;3.85;2.15;;;14.60;99.90;;;;;;5089690;28;20085;-69
2022/05/25 07:45:16;;;;;;;3.88;2.33;;;14.60;99.90;;;;;;5070459;28;20097;-69
2022/05/25 07:47:42;;;;;;;3.70;1.92;;;14.70;99.90;;;;;;5071274;28;20044;-69
2022/05/25 07:50:08;;;;;;;4.22;1.63;;;14.60;99.90;;;;;;5071433;28;20607;-69
2022/05/25 07:52:38;;;;;;;3.75;2.00;;;14.60;99.90;;;;;;5071073;28;20042;-69
2022/05/25 07:55:06;;;;;;;6.63;1.83;;;14.60;99.90;;;;;;5070676;28;20040;-69
2022/05/25 07:57:32;;;;;;;3.10;1.65;;;14.70;99.90;;;;;;5071169;28;20040;-69
2022/05/25 07:59:57;;;;;;;2.65;1.50;;;14.70;99.90;;;;;;5070279;28;20385;-69
2022/05/25 08:08:02;;;;;;;6.32;1.83;;;14.90;99.90;;;;;;5071068;28;20044;-69
2022/05/25 08:10:28;;;;;;;3.40;1.95;;;14.90;99.90;;;;;;5053847;28;20051;-69
2022/05/25 08:12:55;;;;;;;2.90;1.65;;;14.90;99.90;;;;;;5071123;28;20051;-69
2022/05/25 08:15:22;;;;;;;2.88;1.80;;;14.90;99.90;;;;;;5070037;28;20032;-69
2022/05/25 08:17:48;;;;;;;2.28;1.20;;;14.90;99.90;;;;;;5054393;28;20052;-69
2022/05/25 08:20:14;;;;;;;3.40;1.48;;;14.90;99.90;;;;;;5089256;28;20040;-69
2022/05/25 08:22:41;;;;;;;3.67;1.20;;;15.00;99.90;;;;;;5071218;28;20044;-69
2022/05/25 08:25:08;;;;;;;4.65;1.63;;;15.00;99.90;;;;;;5070986;28;20440;-69
2022/05/25 08:27:36;;;;;;;2.30;1.40;;;15.10;99.90;;;;;;5070704;28;20050;-69
2022/05/25 08:30:02;;;;;;;2.90;1.55;;;15.10;99.90;;;;;;5069834;28;20044;-69
2022/05/25 08:32:28;;;;;;;1.73;1.23;;;15.10;99.90;;;;;;5071026;28;20123;-69
2022/05/25 08:34:54;;;;;;;3.05;1.30;;;15.20;99.90;;;;;;5070867;28;20054;-69
2022/05/25 08:37:20;;;;;;;3.00;1.40;;;15.20;99.90;;;;;;5089199;28;20040;-69
2022/05/25 08:39:46;;;;;;;2.92;1.35;;;15.20;99.90;;;;;;5070418;28;20091;-69
2022/05/25 08:42:18;;;;;;;3.25;1.83;;;15.30;99.90;;;;;;5071054;28;20540;-69
2022/05/25 08:44:46;;;;;;;2.65;1.33;;;15.40;99.90;;;;;;5069907;28;20044;-69
2022/05/25 08:47:13;;;;;;;2.88;1.75;;;15.40;99.90;;;;;;5070834;28;20082;-69
2022/05/25 08:49:42;;;;;;;4.95;1.95;;;15.40;99.90;;;;;;5070705;28;20396;-69
2022/05/25 08:52:38;;;;;;;3.30;2.03;;;15.40;99.90;;;;;;5071097;28;20443;-69
2022/05/25 08:55:07;;;;;;;;;;;15.50;99.90;;;;;;5070002;28;20101;-69
2022/05/25 08:57:38;;;;;;;2.85;1.73;;;15.60;99.90;;;;;;5070339;28;19920;-69
2022/05/25 09:00:05;;;;;;;2.80;1.70;;;15.70;99.90;;;;;;5069485;28;20058;-69
2022/05/25 09:02:52;;;;;;;3.05;1.50;;;15.70;99.90;;;;;;5070611;28;20692;-69
2022/05/25 09:05:21;;;;;;;2.40;1.60;;;15.80;99.90;;;;;;5070394;28;20050;-69
2022/05/25 09:08:11;;;;;;;6.60;1.70;;;15.80;99.90;;;;;;5053509;28;20066;-69
2022/05/25 09:10:43;;;;;;;4.10;1.20;;;15.90;99.90;;;;;;5069864;28;20044;-69
2022/05/25 09:13:25;;;;;;;2.40;1.15;;;16.00;99.90;;;;;;5088321;28;20424;-69
2022/05/25 09:18:43;;;;;;;3.17;1.63;;;16.20;99.90;;;;;;5088305;28;20127;-69
2022/05/25 09:21:09;;;;;;;3.78;1.25;;;16.20;99.90;;;;;;5055152;28;20186;-69
2022/05/25 09:23:36;;;;;;;2.15;1.30;;;16.40;99.90;;;;;;5074319;28;20134;-69
2022/05/25 09:26:02;;;;;;;2.08;1.00;;;16.40;99.90;;;;;;5074082;28;20436;-69
2022/05/25 09:28:42;;;;;;;3.85;1.27;;;16.40;99.90;;;;;;5074529;28;20043;-69
2022/05/25 09:31:13;;;;;;;2.40;1.13;;;16.40;99.90;;;;;;5073433;28;20040;-69
2022/05/25 09:34:00;;;;;;;2.00;1.13;;;16.40;99.90;;;;;;5074242;28;20060;-69
2022/05/25 09:36:33;;;;;;;2.28;1.08;;;16.40;99.90;;;;;;5074043;28;20078;-69
2022/05/25 09:39:31;;;;;;;2.63;1.25;;;16.40;99.90;;;;;;5074262;28;20505;-69
2022/05/25 09:42:03;;;;;;;2.47;1.10;;;16.40;99.90;;;;;;5074009;28;20078;-69
2022/05/25 09:44:29;;;;;;;2.50;1.30;;;16.40;99.90;;;;;;5073150;28;20043;-69
2022/05/25 09:47:14;;;;;;;2.30;1.20;;;16.40;99.90;;;;;;5073889;28;20070;-69
2022/05/25 09:49:44;;;;;;;1.50;1.07;;;16.50;99.90;;;;;;5073764;28;20047;-69
2022/05/25 09:52:20;;;;;;;2.13;1.42;;;16.60;99.90;;;;;;5074282;28;20266;-69
2022/05/25 09:54:57;;;;;;;1.73;1.17;;;16.60;99.90;;;;;;5072945;28;20477;-68
2022/05/25 09:57:31;;;;;;;1.95;1.30;;;16.60;99.90;;;;;;5073839;28;20101;-68
2022/05/25 10:00:03;;;;;;;1.80;1.17;;;16.60;99.90;;;;;;5090348;28;20400;-68
2022/05/25 10:02:46;;;;;;;1.23;0.80;;;16.50;99.90;;;;;;5073727;28;20040;-68
2022/05/25 10:05:13;;;;;;;4.93;1.30;;;16.40;99.90;;;;;;5073484;28;20158;-68
2022/05/25 10:07:49;;;;;;;1.95;1.15;;;16.50;99.90;;;;;;5091775;28;20048;-68
2022/05/25 10:10:23;;;;;;;1.65;0.98;;;16.50;99.90;;;;;;5073172;28;20131;-68
2022/05/25 10:13:00;;;;;;;3.90;1.40;;;16.70;99.90;;;;;;5073171;28;20532;-68
2022/05/25 10:15:33;;;;;;;3.30;1.58;;;16.80;99.90;;;;;;5090184;28;20101;-69
2022/05/25 10:17:59;;;;;;;1.70;1.42;;;16.80;99.90;;;;;;5073051;28;20040;-69
2022/05/25 10:20:27;;;;;;;2.42;1.40;;;16.80;99.90;;;;;;5073207;28;20040;-69
2022/05/25 10:23:08;;;;;;;3.05;1.60;;;16.70;99.90;;;;;;5073014;28;20082;-69
2022/05/25 10:25:46;;;;;;;2.10;1.42;;;16.60;99.90;;;;;;5072892;28;20478;-69
2022/05/25 10:28:38;;;;;;;3.53;1.85;;;16.60;99.90;;;;;;5072959;28;20156;-69
2022/05/25 10:36:57;;;;;;;1.58;1.05;;;16.40;99.90;;;;;;5072619;28;20052;-69
2022/05/25 10:39:28;;;;;;;2.08;1.30;;;16.40;99.90;;;;;;5052739;28;20056;-69
2022/05/25 10:41:58;;;;;;;2.65;1.65;;;16.50;99.90;;;;;;5052830;28;20044;-69
2022/05/25 10:44:25;;;;;;;3.35;1.35;;;16.70;99.90;;;;;;5069993;28;20099;-69
2022/05/25 10:46:57;;;;;;;2.50;1.50;;;16.80;99.90;;;;;;5052649;28;20278;-69
2022/05/25 10:49:43;;;;;;;1.85;1.27;;;16.80;99.90;;;;;;5052542;28;20498;-69
2022/05/25 10:52:25;;;;;;;3.85;1.15;;;16.90;99.90;;;;;;5053022;28;20067;-69
2022/05/25 10:54:52;;;;;;;2.17;1.45;;;17.00;99.90;;;;;;5052421;28;20348;-69
2022/05/25 10:57:56;;;;;;;1.88;1.20;;;17.00;99.90;;;;;;5052282;28;20040;-69
2022/05/25 11:00:59;;;;;;;2.55;1.50;;;17.10;99.90;;;;;;5051743;28;20055;-69
2022/05/25 11:03:52;;;;;;;2.20;1.10;;;17.10;99.90;;;;;;5052719;28;20079;-69
2022/05/25 11:06:50;;;;;;;2.17;1.35;;;17.20;99.90;;;;;;5052496;28;20040;-69
2022/05/25 11:09:57;;;;;;;1.35;0.93;;;17.20;99.90;;;;;;5052160;28;20037;-69
2022/05/25 11:12:54;;;;;;;1.73;1.40;;;17.30;99.40;;;;;;5039099;28;20568;-69
2022/05/25 11:15:39;;;;;;;2.70;1.00;;;17.30;99.50;;;;;;5046434;28;20139;-69
2022/05/25 11:18:23;;;;;;;0.80;0.55;;;17.40;97.10;;;;;;5035643;28;20040;-69
2022/05/25 11:21:17;;;;;;;2.47;0.77;;;17.40;99.90;;;;;;5052018;28;20441;-69
2022/05/25 11:24:39;;;;;;;1.95;1.13;;;17.60;96.20;;;;;;5051672;28;20126;-69
2022/05/25 11:27:17;;;;;;;1.90;1.05;;;17.70;95.20;;;;;;4945453;28;20178;-69
2022/05/25 11:30:07;;;;;;;1.85;1.63;;;17.70;97.40;;;;;;5050448;28;20044;-69
2022/05/25 11:32:53;;;;;;;1.90;1.10;;;17.80;95.80;;;;;;5034857;28;20049;-69
2022/05/25 11:35:52;;;;;;;1.45;1.02;;;17.80;96.10;;;;;;5051745;28;20033;-69
2022/05/25 11:38:47;;;;;;;1.98;1.10;;;17.80;95.40;;;;;;5035127;28;20115;-68
2022/05/25 11:41:26;;;;;;;2.08;1.35;;;17.80;92.60;;;;;;5068979;28;20078;-68
2022/05/25 11:44:00;;;;;;;1.92;1.23;;;17.70;94.80;;;;;;5050370;28;20068;-68
2022/05/25 11:46:46;;;;;;;1.90;1.08;;;17.60;96.20;;;;;;5068951;28;20437;-69
2022/05/25 11:49:37;;;;;;;2.30;1.38;;;17.50;91.80;;;;;;5051158;28;20486;-69
2022/05/25 11:52:11;;;;;;;2.20;1.13;;;17.40;94.60;;;;;;5051324;28;20401;-68
2022/05/25 11:55:18;;;;;;;2.75;1.38;;;17.30;95.90;;;;;;5062569;28;20196;-68
2022/05/25 11:58:15;;;;;;;2.70;1.50;;;17.20;93.10;;;;;;5070881;28;20051;-68
2022/05/25 12:00:43;;;;;;;1.58;0.85;;;17.10;93.70;;;;;;5069893;28;20052;-68
2022/05/25 12:03:41;;;;;;;1.33;0.80;;;17.00;95.20;;;;;;5071435;28;20477;-68
2022/05/25 12:06:39;;;;;;;1.35;0.90;;;16.80;92.40;;;;;;5071141;28;20036;-69
2022/05/25 12:09:17;;;;;;;1.20;0.80;;;16.60;93.20;;;;;;5089312;28;20044;-69
2022/05/25 12:11:57;;;;;;;2.63;1.30;;;16.40;96.30;;;;;;5071093;28;20481;-68
2022/05/25 12:14:45;;;;;;;3.65;1.10;;;16.10;97.70;;;;;;5069673;28;20123;-69
2022/05/25 12:17:16;;;;;;;2.45;1.60;;;15.90;99.90;;;;;;5071194;28;20140;-68
2022/05/25 12:19:43;;;;;;;4.30;1.83;;;15.80;99.90;;;;;;5089213;28;20161;-68
2022/05/25 12:22:13;;;;;;;3.28;2.05;;;15.70;99.90;;;;;;5071193;28;20497;-69
2022/05/25 12:24:47;;;;;;;4.03;2.30;;;15.70;99.90;;;;;;5071126;28;20207;-68
2022/05/25 12:27:19;;;;;;;4.07;2.25;;;15.80;99.90;;;;;;5070785;28;20036;-68
2022/05/25 12:29:54;;;;;;;2.95;2.05;;;15.90;99.90;;;;;;5069770;28;20040;-68
2022/05/25 12:32:20;;;;;;;;;;;16.00;99.90;;;;;;5071188;28;20518;-68
2022/05/25 12:34:47;;;;;;;;;;;16.20;99.90;;;;;;5071485;28;20030;-68
2022/05/25 12:37:18;;;;;;;4.38;2.28;;;16.20;99.90;;;;;;5088751;28;20014;-68
2022/05/25 12:39:47;;;;;;;3.30;1.80;;;16.30;99.90;;;;;;5070347;28;20206;-68
2022/05/25 12:42:25;;;;;;;3.88;2.20;;;16.50;99.90;;;;;;5070957;28;20516;-68
2022/05/25 12:51:17;;;;;;;3.38;2.30;;;16.70;99.90;;;;;;5070554;28;20565;-68
2022/05/25 12:53:55;;;;;;;6.00;2.08;;;16.60;99.90;;;;;;5068701;28;20090;-68
2022/05/25 12:56:23;;;;;;;2.03;1.50;;;16.60;99.90;;;;;;5069437;28;20040;-68
2022/05/25 12:58:52;;;;;;;2.40;1.25;;;16.40;99.90;;;;;;5070059;28;20126;-68
2022/05/25 13:01:33;;;;;;;2.20;1.13;;;16.40;99.90;;;;;;5069838;28;20040;-69
2022/05/25 13:03:58;;;;;;;2.22;1.17;;;16.40;99.90;;;;;;5070553;28;20443;-69
2022/05/25 13:06:33;;;;;;;1.73;1.05;;;16.50;99.90;;;;;;5070592;28;20047;-68
2022/05/25 13:09:03;;;;;;;1.95;0.85;;;16.70;99.90;;;;;;5070236;28;20516;-68
2022/05/25 13:11:39;;;;;;;1.50;0.90;;;16.80;99.90;;;;;;5070429;28;20063;-69
2022/05/25 13:14:17;;;;;;;1.27;0.68;;;16.90;99.90;;;;;;5069420;28;20644;-68
2022/05/25 13:16:45;;;;;;;2.05;0.60;;;17.00;99.90;;;;;;5088631;28;20040;-68
2022/05/25 13:19:32;;;;;;;2.72;0.82;;;17.00;99.90;;;;;;5069812;28;20485;-68
2022/05/25 13:22:02;;;;;;;1.17;0.60;;;17.10;99.90;;;;;;5053345;28;20066;-68
2022/05/25 13:24:34;;;;;;;1.33;0.63;;;17.10;99.90;;;;;;5088141;28;20048;-68
2022/05/25 13:27:11;;;;;;;4.07;0.77;;;17.10;99.90;;;;;;5069957;28;20587;-68
2022/05/25 13:29:47;;;;;;;0.43;0.20;;;17.10;98.40;;;;;;5068970;28;20048;-68
2022/05/25 13:32:25;;;;;;;0.40;0.20;;;17.10;99.90;;;;;;5053355;28;20054;-68
2022/05/25 13:34:51;;;;;;;0.55;0.32;;;17.10;99.30;;;;;;5070496;28;20109;-68
2022/05/25 13:37:17;;;;;;;0.25;0.25;;;17.00;99.00;;;;;;5070264;28;20492;-68
2022/05/25 13:39:42;;;;;;;0.20;0.20;;;17.00;98.10;;;;;;5069716;28;20412;-68
2022/05/25 13:42:13;;;;;;;1.80;0.22;;;17.00;98.70;;;;;;5070402;28;20048;-68